sensor_id;sensor_type;location;lat;lon;timestamp;pressure;altitude;pressure_sealevel;temperature;humidity
63343;BME280;49465;57.664;39.686;2022-08-19T00:01:18;101458.94;;;21.52;48.41
63343;BME280;49465;57.664;39.686;2022-08-19T00:03:45;101463.28;;;21.33;48.80
63343;BME280;49465;57.664;39.686;2022-08-19T00:06:16;101467.22;;;21.29;49.24
63343;BME280;49465;57.664;39.686;2022-08-19T00:08:42;101464.97;;;21.25;49.63
63343;BME280;49465;57.664;39.686;2022-08-19T00:11:10;101444.47;;;21.06;50.09
63343;BME280;49465;57.664;39.686;2022-08-19T00:13:37;101463.97;;;21.16;49.33
63343;BME280;49465;57.664;39.686;2022-08-19T00:16:11;101477.59;;;21.13;50.02
63343;BME280;49465;57.664;39.686;2022-08-19T00:18:49;101473.50;;;21.09;49.46
63343;BME280;49465;57.664;39.686;2022-08-19T00:21:20;101483.34;;;21.18;49.71
63343;BME280;49465;57.664;39.686;2022-08-19T00:23:56;101482.78;;;21.24;48.99
63343;BME280;49465;57.664;39.686;2022-08-19T00:26:30;101485.59;;;21.13;49.11
63343;BME280;49465;57.664;39.686;2022-08-19T00:28:56;101483.75;;;20.94;49.49
63343;BME280;49465;57.664;39.686;2022-08-19T00:31:23;101491.16;;;20.90;50.00
63343;BME280;49465;57.664;39.686;2022-08-19T00:33:51;101492.41;;;20.86;50.32
63343;BME280;49465;57.664;39.686;2022-08-19T00:36:21;101495.34;;;20.83;50.12
63343;BME280;49465;57.664;39.686;2022-08-19T00:38:48;101495.63;;;20.80;49.63
63343;BME280;49465;57.664;39.686;2022-08-19T00:41:18;101497.59;;;20.78;50.19
63343;BME280;49465;57.664;39.686;2022-08-19T00:44:07;101502.13;;;21.07;48.33
63343;BME280;49465;57.664;39.686;2022-08-19T00:46:36;101499.81;;;20.73;49.79
63343;BME280;49465;57.664;39.686;2022-08-19T00:49:25;101505.16;;;20.73;49.88
63343;BME280;49465;57.664;39.686;2022-08-19T00:52:07;101509.91;;;20.69;50.36
63343;BME280;49465;57.664;39.686;2022-08-19T00:54:35;101504.91;;;20.55;50.20
63343;BME280;49465;57.664;39.686;2022-08-19T00:57:12;101511.84;;;20.67;50.23
63343;BME280;49465;57.664;39.686;2022-08-19T00:59:42;101517.06;;;20.48;51.07
63343;BME280;49465;57.664;39.686;2022-08-19T01:02:17;101512.78;;;20.57;50.28
63343;BME280;49465;57.664;39.686;2022-08-19T01:04:55;101516.06;;;20.39;51.33
63343;BME280;49465;57.664;39.686;2022-08-19T01:07:34;101522.97;;;20.51;50.38
63343;BME280;49465;57.664;39.686;2022-08-19T01:10:05;101525.44;;;20.33;50.50
63343;BME280;49465;57.664;39.686;2022-08-19T01:12:39;101523.44;;;20.97;46.84
63343;BME280;49465;57.664;39.686;2022-08-19T01:15:31;101516.69;;;20.52;49.24
63343;BME280;49465;57.664;39.686;2022-08-19T01:18:08;101527.56;;;20.40;50.18
63343;BME280;49465;57.664;39.686;2022-08-19T01:20:35;101521.69;;;20.15;50.62
63343;BME280;49465;57.664;39.686;2022-08-19T01:23:02;101526.44;;;20.11;51.21
63343;BME280;49465;57.664;39.686;2022-08-19T01:25:39;101532.66;;;20.22;50.96
63343;BME280;49465;57.664;39.686;2022-08-19T01:28:08;101527.78;;;20.06;51.51
63343;BME280;49465;57.664;39.686;2022-08-19T01:30:35;101536.91;;;20.03;51.48
63343;BME280;49465;57.664;39.686;2022-08-19T01:33:02;101542.59;;;19.99;51.35
63343;BME280;49465;57.664;39.686;2022-08-19T01:35:32;101532.47;;;19.92;51.91
63343;BME280;49465;57.664;39.686;2022-08-19T01:38:07;101541.22;;;20.04;51.06
63343;BME280;49465;57.664;39.686;2022-08-19T01:40:36;101535.38;;;19.89;51.46
63343;BME280;49465;57.664;39.686;2022-08-19T01:43:04;101534.34;;;19.81;52.19
63343;BME280;49465;57.664;39.686;2022-08-19T01:45:33;101539.66;;;19.81;52.32
63343;BME280;49465;57.664;39.686;2022-08-19T01:48:06;101539.88;;;19.89;51.76
63343;BME280;49465;57.664;39.686;2022-08-19T01:50:38;101548.69;;;19.89;51.60
63343;BME280;49465;57.664;39.686;2022-08-19T01:53:11;101548.69;;;19.89;51.87
63343;BME280;49465;57.664;39.686;2022-08-19T01:55:39;101555.31;;;19.74;53.21
63343;BME280;49465;57.664;39.686;2022-08-19T01:58:11;101557.09;;;19.73;52.39
63343;BME280;49465;57.664;39.686;2022-08-19T02:00:43;101556.47;;;19.81;51.72
63343;BME280;49465;57.664;39.686;2022-08-19T02:03:14;101547.34;;;19.63;52.47
63343;BME280;49465;57.664;39.686;2022-08-19T02:05:44;101558.81;;;19.63;52.45
63343;BME280;49465;57.664;39.686;2022-08-19T02:08:12;101549.28;;;19.61;53.01
63343;BME280;49465;57.664;39.686;2022-08-19T02:10:42;101551.81;;;19.62;52.97
63343;BME280;49465;57.664;39.686;2022-08-19T02:13:18;101553.03;;;19.58;53.05
63343;BME280;49465;57.664;39.686;2022-08-19T02:19:07;101556.78;;;19.55;52.84
63343;BME280;49465;57.664;39.686;2022-08-19T02:21:34;101551.75;;;19.52;53.37
63343;BME280;49465;57.664;39.686;2022-08-19T02:24:04;101550.88;;;19.52;53.27
63343;BME280;49465;57.664;39.686;2022-08-19T02:26:32;101559.84;;;19.51;53.63
63343;BME280;49465;57.664;39.686;2022-08-19T02:28:59;101551.13;;;19.49;53.90
63343;BME280;49465;57.664;39.686;2022-08-19T02:31:40;101571.28;;;19.74;52.86
63343;BME280;49465;57.664;39.686;2022-08-19T02:34:06;101561.78;;;19.49;54.33
63343;BME280;49465;57.664;39.686;2022-08-19T02:36:33;101564.44;;;19.49;54.79
63343;BME280;49465;57.664;39.686;2022-08-19T02:38:59;101562.63;;;19.49;55.17
63343;BME280;49465;57.664;39.686;2022-08-19T02:41:32;101569.25;;;19.55;55.78
63343;BME280;49465;57.664;39.686;2022-08-19T02:44:05;101573.59;;;19.56;55.44
63343;BME280;49465;57.664;39.686;2022-08-19T02:46:35;101568.25;;;19.56;55.58
63343;BME280;49465;57.664;39.686;2022-08-19T02:49:06;101591.94;;;19.70;55.35
63343;BME280;49465;57.664;39.686;2022-08-19T02:51:43;101579.69;;;19.79;54.68
63343;BME280;49465;57.664;39.686;2022-08-19T02:54:24;101582.75;;;19.74;55.61
63343;BME280;49465;57.664;39.686;2022-08-19T02:56:55;101572.56;;;19.80;55.79
63343;BME280;49465;57.664;39.686;2022-08-19T02:59:26;101569.94;;;19.68;56.65
63343;BME280;49465;57.664;39.686;2022-08-19T03:02:00;101573.03;;;19.85;55.95
63343;BME280;49465;57.664;39.686;2022-08-19T03:04:31;101566.75;;;19.86;55.64
63343;BME280;49465;57.664;39.686;2022-08-19T03:07:04;101576.69;;;19.84;56.66
63343;BME280;49465;57.664;39.686;2022-08-19T03:09:41;101580.63;;;19.89;57.01
63343;BME280;49465;57.664;39.686;2022-08-19T03:12:11;101581.00;;;19.85;56.53
63343;BME280;49465;57.664;39.686;2022-08-19T03:14:42;101580.06;;;19.86;56.55
63343;BME280;49465;57.664;39.686;2022-08-19T03:17:11;101589.66;;;19.98;56.42
63343;BME280;49465;57.664;39.686;2022-08-19T03:19:40;101593.09;;;19.89;57.24
63343;BME280;49465;57.664;39.686;2022-08-19T03:22:10;101589.91;;;19.95;56.99
63343;BME280;49465;57.664;39.686;2022-08-19T03:24:37;101593.03;;;20.00;57.42
63343;BME280;49465;57.664;39.686;2022-08-19T03:27:17;101593.75;;;20.02;57.06
63343;BME280;49465;57.664;39.686;2022-08-19T03:29:58;101604.03;;;20.28;55.71
63343;BME280;49465;57.664;39.686;2022-08-19T03:32:25;101598.03;;;20.14;56.51
63343;BME280;49465;57.664;39.686;2022-08-19T03:34:56;101598.16;;;20.34;56.07
63343;BME280;49465;57.664;39.686;2022-08-19T03:37:36;101589.88;;;20.27;56.09
63343;BME280;49465;57.664;39.686;2022-08-19T03:40:03;101602.91;;;20.30;56.71
63343;BME280;49465;57.664;39.686;2022-08-19T03:42:33;101606.28;;;20.32;56.27
63343;BME280;49465;57.664;39.686;2022-08-19T03:45:14;101601.22;;;20.50;56.09
63343;BME280;49465;57.664;39.686;2022-08-19T03:47:41;101596.69;;;20.41;56.00
63343;BME280;49465;57.664;39.686;2022-08-19T03:50:21;101607.59;;;20.59;55.73
63343;BME280;49465;57.664;39.686;2022-08-19T03:52:51;101604.69;;;20.62;55.49
63343;BME280;49465;57.664;39.686;2022-08-19T03:55:19;101604.81;;;20.61;55.93
63343;BME280;49465;57.664;39.686;2022-08-19T03:57:45;101599.91;;;20.66;56.02
63343;BME280;49465;57.664;39.686;2022-08-19T04:00:14;101608.94;;;20.74;55.30
63343;BME280;49465;57.664;39.686;2022-08-19T04:02:45;101607.28;;;20.83;55.94
63343;BME280;49465;57.664;39.686;2022-08-19T04:05:11;101606.50;;;20.92;55.57
63343;BME280;49465;57.664;39.686;2022-08-19T04:07:45;101612.56;;;21.04;55.37
63343;BME280;49465;57.664;39.686;2022-08-19T04:10:12;101609.94;;;21.14;55.43
63343;BME280;49465;57.664;39.686;2022-08-19T04:12:45;101609.84;;;21.25;54.85
63343;BME280;49465;57.664;39.686;2022-08-19T04:15:26;101617.91;;;21.45;54.42
63343;BME280;49465;57.664;39.686;2022-08-19T04:17:57;101608.47;;;21.41;54.96
63343;BME280;49465;57.664;39.686;2022-08-19T04:20:31;101603.03;;;21.62;54.35
63343;BME280;49465;57.664;39.686;2022-08-19T04:23:27;101603.34;;;21.88;53.04
63343;BME280;49465;57.664;39.686;2022-08-19T04:26:19;101606.16;;;21.96;53.14
63343;BME280;49465;57.664;39.686;2022-08-19T04:31:58;101607.81;;;22.07;54.40
63343;BME280;49465;57.664;39.686;2022-08-19T04:34:32;101612.03;;;22.09;53.56
63343;BME280;49465;57.664;39.686;2022-08-19T04:37:06;101631.44;;;22.31;53.22
63343;BME280;49465;57.664;39.686;2022-08-19T04:39:55;101626.34;;;22.47;53.23
63343;BME280;49465;57.664;39.686;2022-08-19T04:42:43;101623.50;;;22.59;52.49
63343;BME280;49465;57.664;39.686;2022-08-19T04:45:24;101622.34;;;22.71;51.96
63343;BME280;49465;57.664;39.686;2022-08-19T04:47:55;101628.47;;;22.81;52.17
63343;BME280;49465;57.664;39.686;2022-08-19T04:50:28;101622.16;;;22.82;51.70
63343;BME280;49465;57.664;39.686;2022-08-19T04:52:59;101623.78;;;23.03;51.62
63343;BME280;49465;57.664;39.686;2022-08-19T04:55:45;101620.16;;;23.22;50.96
63343;BME280;49465;57.664;39.686;2022-08-19T04:58:12;101626.88;;;23.08;51.39
63343;BME280;49465;57.664;39.686;2022-08-19T05:00:47;101632.91;;;23.38;51.13
63343;BME280;49465;57.664;39.686;2022-08-19T05:03:20;101622.59;;;23.43;50.39
63343;BME280;49465;57.664;39.686;2022-08-19T05:06:28;101634.03;;;23.81;49.96
63343;BME280;49465;57.664;39.686;2022-08-19T05:09:06;101629.22;;;23.84;50.31
63343;BME280;49465;57.664;39.686;2022-08-19T05:11:34;101629.91;;;23.86;50.29
63343;BME280;49465;57.664;39.686;2022-08-19T05:14:02;101628.13;;;23.95;49.60
63343;BME280;49465;57.664;39.686;2022-08-19T05:16:34;101627.59;;;24.10;49.59
63343;BME280;49465;57.664;39.686;2022-08-19T05:19:04;101624.50;;;24.22;49.70
63343;BME280;49465;57.664;39.686;2022-08-19T05:21:49;101636.03;;;24.41;49.09
63343;BME280;49465;57.664;39.686;2022-08-19T05:24:39;101636.88;;;24.67;48.90
63343;BME280;49465;57.664;39.686;2022-08-19T05:27:11;101633.75;;;24.72;48.79
63343;BME280;49465;57.664;39.686;2022-08-19T05:29:37;101633.44;;;24.83;48.38
63343;BME280;49465;57.664;39.686;2022-08-19T05:32:10;101637.59;;;25.04;48.17
63343;BME280;49465;57.664;39.686;2022-08-19T05:34:40;101637.63;;;25.12;47.76
63343;BME280;49465;57.664;39.686;2022-08-19T05:37:33;101653.81;;;25.29;47.63
63343;BME280;49465;57.664;39.686;2022-08-19T05:40:15;101648.34;;;25.47;47.18
63343;BME280;49465;57.664;39.686;2022-08-19T05:42:46;101646.34;;;25.57;47.20
63343;BME280;49465;57.664;39.686;2022-08-19T05:45:27;101650.22;;;25.71;46.24
63343;BME280;49465;57.664;39.686;2022-08-19T05:47:58;101641.34;;;25.70;46.46
63343;BME280;49465;57.664;39.686;2022-08-19T05:50:42;101648.59;;;26.02;45.47
63343;BME280;49465;57.664;39.686;2022-08-19T05:53:30;101643.25;;;26.27;45.87
63343;BME280;49465;57.664;39.686;2022-08-19T05:56:13;101645.41;;;26.32;45.53
63343;BME280;49465;57.664;39.686;2022-08-19T05:58:49;101648.75;;;26.34;45.26
63343;BME280;49465;57.664;39.686;2022-08-19T06:01:20;101651.59;;;26.57;44.92
63343;BME280;49465;57.664;39.686;2022-08-19T06:03:47;101659.81;;;26.55;44.67
63343;BME280;49465;57.664;39.686;2022-08-19T06:06:34;101658.09;;;26.87;44.11
63343;BME280;49465;57.664;39.686;2022-08-19T06:09:10;101659.09;;;26.94;41.14
63343;BME280;49465;57.664;39.686;2022-08-19T06:11:48;101657.88;;;26.97;42.26
63343;BME280;49465;57.664;39.686;2022-08-19T06:14:28;101663.47;;;26.87;42.53
63343;BME280;49465;57.664;39.686;2022-08-19T06:17:03;101667.31;;;26.93;41.48
63343;BME280;49465;57.664;39.686;2022-08-19T06:19:34;101663.34;;;26.80;42.45
63343;BME280;49465;57.664;39.686;2022-08-19T06:22:05;101663.47;;;26.95;42.87
63343;BME280;49465;57.664;39.686;2022-08-19T06:24:38;101664.63;;;26.93;42.59
63343;BME280;49465;57.664;39.686;2022-08-19T06:27:10;101666.75;;;27.14;42.44
63343;BME280;49465;57.664;39.686;2022-08-19T06:29:39;101663.88;;;27.15;41.92
63343;BME280;49465;57.664;39.686;2022-08-19T06:32:19;101664.66;;;27.32;41.89
63343;BME280;49465;57.664;39.686;2022-08-19T06:35:04;101667.34;;;27.40;41.10
63343;BME280;49465;57.664;39.686;2022-08-19T06:37:52;101677.50;;;27.53;39.89
63343;BME280;49465;57.664;39.686;2022-08-19T06:40:22;101675.44;;;27.32;40.33
63343;BME280;49465;57.664;39.686;2022-08-19T06:46:13;101687.84;;;27.73;40.91
63343;BME280;49465;57.664;39.686;2022-08-19T06:48:45;101684.72;;;27.61;39.56
63343;BME280;49465;57.664;39.686;2022-08-19T06:51:42;101692.78;;;27.92;38.28
63343;BME280;49465;57.664;39.686;2022-08-19T06:54:24;101692.25;;;27.97;38.85
63343;BME280;49465;57.664;39.686;2022-08-19T06:57:11;101694.53;;;28.08;38.62
63343;BME280;49465;57.664;39.686;2022-08-19T06:59:45;101692.81;;;27.84;37.99
63343;BME280;49465;57.664;39.686;2022-08-19T07:02:31;101684.88;;;27.91;37.76
63343;BME280;49465;57.664;39.686;2022-08-19T07:05:19;101692.44;;;27.95;38.04
63343;BME280;49465;57.664;39.686;2022-08-19T07:07:45;101684.09;;;27.82;37.16
63343;BME280;49465;57.664;39.686;2022-08-19T07:10:20;101700.53;;;27.95;37.19
63343;BME280;49465;57.664;39.686;2022-08-19T07:12:52;101695.44;;;28.00;37.13
63343;BME280;49465;57.664;39.686;2022-08-19T07:15:21;101701.19;;;27.97;36.90
63343;BME280;49465;57.664;39.686;2022-08-19T07:18:01;101694.09;;;28.19;36.59
63343;BME280;49465;57.664;39.686;2022-08-19T07:20:39;101689.38;;;28.22;36.04
63343;BME280;49465;57.664;39.686;2022-08-19T07:23:08;101697.56;;;28.28;35.64
63343;BME280;49465;57.664;39.686;2022-08-19T07:25:46;101707.00;;;28.47;35.53
63343;BME280;49465;57.664;39.686;2022-08-19T07:28:17;101703.19;;;28.42;34.76
63343;BME280;49465;57.664;39.686;2022-08-19T07:30:48;101690.25;;;28.37;33.95
63343;BME280;49465;57.664;39.686;2022-08-19T07:33:16;101694.69;;;28.53;34.06
63343;BME280;49465;57.664;39.686;2022-08-19T07:35:49;101695.38;;;28.70;34.45
63343;BME280;49465;57.664;39.686;2022-08-19T07:38:21;101696.00;;;28.87;35.28
63343;BME280;49465;57.664;39.686;2022-08-19T07:40:54;101683.81;;;28.91;33.86
63343;BME280;49465;57.664;39.686;2022-08-19T07:43:29;101689.50;;;28.96;33.29
63343;BME280;49465;57.664;39.686;2022-08-19T07:46:00;101685.22;;;29.16;31.29
63343;BME280;49465;57.664;39.686;2022-08-19T07:48:31;101686.81;;;29.26;33.32
63343;BME280;49465;57.664;39.686;2022-08-19T07:51:03;101684.69;;;29.21;32.84
63343;BME280;49465;57.664;39.686;2022-08-19T07:53:45;101686.31;;;29.37;32.92
63343;BME280;49465;57.664;39.686;2022-08-19T07:56:15;101691.25;;;29.33;32.70
63343;BME280;49465;57.664;39.686;2022-08-19T07:58:46;101678.09;;;29.45;33.28
63343;BME280;49465;57.664;39.686;2022-08-19T08:01:32;101684.81;;;29.71;33.54
63343;BME280;49465;57.664;39.686;2022-08-19T08:04:04;101678.03;;;29.75;33.44
63343;BME280;49465;57.664;39.686;2022-08-19T08:07:00;101680.94;;;29.95;33.12
63343;BME280;49465;57.664;39.686;2022-08-19T08:09:58;101675.78;;;30.00;31.49
63343;BME280;49465;57.664;39.686;2022-08-19T08:12:32;101677.25;;;30.03;30.24
63343;BME280;49465;57.664;39.686;2022-08-19T08:15:10;101687.97;;;30.11;30.31
63343;BME280;49465;57.664;39.686;2022-08-19T08:17:37;101674.88;;;29.93;31.02
63343;BME280;49465;57.664;39.686;2022-08-19T08:20:18;101675.09;;;30.13;31.83
63343;BME280;49465;57.664;39.686;2022-08-19T08:22:57;101669.34;;;30.23;31.89
63343;BME280;49465;57.664;39.686;2022-08-19T08:25:47;101677.25;;;30.24;28.97
63343;BME280;49465;57.664;39.686;2022-08-19T08:28:28;101686.00;;;30.26;29.88
63343;BME280;49465;57.664;39.686;2022-08-19T08:31:12;101676.44;;;30.30;30.55
63343;BME280;49465;57.664;39.686;2022-08-19T08:34:00;101685.69;;;30.36;30.70
63343;BME280;49465;57.664;39.686;2022-08-19T08:36:39;101679.25;;;30.37;30.83
63343;BME280;49465;57.664;39.686;2022-08-19T08:39:18;101681.19;;;30.43;29.83
63343;BME280;49465;57.664;39.686;2022-08-19T08:42:28;101675.72;;;30.37;29.96
63343;BME280;49465;57.664;39.686;2022-08-19T08:45:23;101684.31;;;30.47;29.91
63343;BME280;49465;57.664;39.686;2022-08-19T08:47:52;101678.81;;;30.33;29.36
63343;BME280;49465;57.664;39.686;2022-08-19T08:50:37;101679.41;;;30.57;30.57
63343;BME280;49465;57.664;39.686;2022-08-19T08:53:07;101679.44;;;30.35;29.54
63343;BME280;49465;57.664;39.686;2022-08-19T08:55:37;101673.41;;;30.33;29.54
63343;BME280;49465;57.664;39.686;2022-08-19T08:58:29;101675.91;;;30.63;29.61
63343;BME280;49465;57.664;39.686;2022-08-19T09:00:57;101673.66;;;30.39;30.15
63343;BME280;49465;57.664;39.686;2022-08-19T09:03:28;101680.34;;;30.43;30.22
63343;BME280;49465;57.664;39.686;2022-08-19T09:09:05;101681.38;;;30.70;29.52
63343;BME280;49465;57.664;39.686;2022-08-19T09:16:44;101694.50;;;30.45;29.82
63343;BME280;49465;57.664;39.686;2022-08-19T09:19:10;101692.44;;;30.47;30.13
63343;BME280;49465;57.664;39.686;2022-08-19T09:21:41;101694.72;;;30.50;29.46
63343;BME280;49465;57.664;39.686;2022-08-19T09:24:15;101686.63;;;30.50;29.37
63343;BME280;49465;57.664;39.686;2022-08-19T09:26:48;101693.03;;;30.70;28.69
63343;BME280;49465;57.664;39.686;2022-08-19T09:29:15;101691.28;;;30.56;29.27
63343;BME280;49465;57.664;39.686;2022-08-19T09:31:45;101695.19;;;30.53;29.90
63343;BME280;49465;57.664;39.686;2022-08-19T09:34:16;101701.03;;;30.57;29.06
63343;BME280;49465;57.664;39.686;2022-08-19T09:36:42;101688.56;;;30.56;28.93
63343;BME280;49465;57.664;39.686;2022-08-19T09:39:09;101698.59;;;30.62;28.70
63343;BME280;49465;57.664;39.686;2022-08-19T09:44:45;101687.94;;;30.54;26.70
63343;BME280;49465;57.664;39.686;2022-08-19T09:47:20;101688.34;;;30.58;26.47
63343;BME280;49465;57.664;39.686;2022-08-19T09:49:58;101689.59;;;30.55;26.62
63343;BME280;49465;57.664;39.686;2022-08-19T09:52:36;101698.16;;;30.59;27.41
63343;BME280;49465;57.664;39.686;2022-08-19T09:55:11;101691.69;;;30.31;26.56
63343;BME280;49465;57.664;39.686;2022-08-19T09:57:38;101683.94;;;30.28;27.59
63343;BME280;49465;57.664;39.686;2022-08-19T10:00:10;101693.28;;;30.26;27.41
63343;BME280;49465;57.664;39.686;2022-08-19T10:02:41;101686.00;;;30.26;28.29
63343;BME280;49465;57.664;39.686;2022-08-19T10:05:07;101682.34;;;30.34;27.65
63343;BME280;49465;57.664;39.686;2022-08-19T10:08:05;101687.28;;;30.30;25.89
63343;BME280;49465;57.664;39.686;2022-08-19T10:10:43;101690.56;;;30.26;26.52
63343;BME280;49465;57.664;39.686;2022-08-19T10:13:19;101689.00;;;30.31;27.34
63343;BME280;49465;57.664;39.686;2022-08-19T10:16:10;101689.94;;;30.45;25.03
63343;BME280;49465;57.664;39.686;2022-08-19T10:18:42;101696.50;;;30.36;26.37
63343;BME280;49465;57.664;39.686;2022-08-19T10:21:32;101678.84;;;30.68;26.72
63343;BME280;49465;57.664;39.686;2022-08-19T10:24:16;101690.47;;;30.62;26.38
63343;BME280;49465;57.664;39.686;2022-08-19T10:26:42;101682.56;;;30.61;26.90
63343;BME280;49465;57.664;39.686;2022-08-19T10:29:11;101687.13;;;30.60;26.09
63343;BME280;49465;57.664;39.686;2022-08-19T10:31:52;101693.47;;;30.74;26.60
63343;BME280;49465;57.664;39.686;2022-08-19T10:34:19;101683.78;;;30.58;26.88
63343;BME280;49465;57.664;39.686;2022-08-19T10:36:46;101694.16;;;30.54;26.86
63343;BME280;49465;57.664;39.686;2022-08-19T10:39:20;101697.38;;;30.71;26.48
63343;BME280;49465;57.664;39.686;2022-08-19T10:41:46;101700.41;;;30.55;26.38
63343;BME280;49465;57.664;39.686;2022-08-19T10:44:13;101692.44;;;30.47;25.04
63343;BME280;49465;57.664;39.686;2022-08-19T10:46:47;101695.38;;;30.52;25.39
63343;BME280;49465;57.664;39.686;2022-08-19T10:49:25;101692.81;;;30.72;25.19
63343;BME280;49465;57.664;39.686;2022-08-19T10:51:52;101684.97;;;30.49;24.64
63343;BME280;49465;57.664;39.686;2022-08-19T10:54:41;101678.28;;;30.45;25.19
63343;BME280;49465;57.664;39.686;2022-08-19T10:57:30;101690.38;;;30.49;25.93
63343;BME280;49465;57.664;39.686;2022-08-19T10:59:56;101684.56;;;30.52;25.39
63343;BME280;49465;57.664;39.686;2022-08-19T11:02:56;101689.03;;;30.94;26.45
63343;BME280;49465;57.664;39.686;2022-08-19T11:05:23;101691.34;;;30.69;24.72
63343;BME280;49465;57.664;39.686;2022-08-19T11:07:49;101688.88;;;30.74;24.98
63343;BME280;49465;57.664;39.686;2022-08-19T11:10:21;101693.91;;;30.78;24.76
63343;BME280;49465;57.664;39.686;2022-08-19T11:19:11;101702.38;;;30.96;25.01
63343;BME280;49465;57.664;39.686;2022-08-19T11:21:50;101697.63;;;30.77;24.96
63343;BME280;49465;57.664;39.686;2022-08-19T11:24:33;101697.38;;;31.00;24.71
63343;BME280;49465;57.664;39.686;2022-08-19T11:27:07;101709.44;;;30.97;24.74
63343;BME280;49465;57.664;39.686;2022-08-19T11:29:51;101714.72;;;31.05;24.90
63343;BME280;49465;57.664;39.686;2022-08-19T11:32:30;101709.94;;;31.07;23.84
63343;BME280;49465;57.664;39.686;2022-08-19T11:37:56;101695.75;;;31.05;24.37
63343;BME280;49465;57.664;39.686;2022-08-19T11:40:30;101707.06;;;31.22;24.55
63343;BME280;49465;57.664;39.686;2022-08-19T11:43:05;101697.03;;;31.16;24.63
63343;BME280;49465;57.664;39.686;2022-08-19T11:45:47;101707.25;;;31.14;25.10
63343;BME280;49465;57.664;39.686;2022-08-19T11:48:27;101696.22;;;31.22;25.03
63343;BME280;49465;57.664;39.686;2022-08-19T11:51:07;101696.28;;;31.29;24.43
63343;BME280;49465;57.664;39.686;2022-08-19T11:53:38;101685.69;;;30.92;24.95
63343;BME280;49465;57.664;39.686;2022-08-19T11:56:06;101690.78;;;31.09;25.12
63343;BME280;49465;57.664;39.686;2022-08-19T11:58:34;101696.56;;;30.99;25.45
63343;BME280;49465;57.664;39.686;2022-08-19T12:01:06;101690.56;;;31.10;25.55
63343;BME280;49465;57.664;39.686;2022-08-19T12:03:41;101695.47;;;30.93;24.98
63343;BME280;49465;57.664;39.686;2022-08-19T12:06:18;101696.56;;;30.99;24.55
63343;BME280;49465;57.664;39.686;2022-08-19T12:08:45;101692.03;;;31.13;25.99
63343;BME280;49465;57.664;39.686;2022-08-19T12:11:24;101679.44;;;30.92;24.95
63343;BME280;49465;57.664;39.686;2022-08-19T12:13:51;101675.72;;;31.00;24.85
63343;BME280;49465;57.664;39.686;2022-08-19T12:16:24;101687.38;;;30.93;24.48
63343;BME280;49465;57.664;39.686;2022-08-19T12:18:55;101679.88;;;30.96;24.97
63343;BME280;49465;57.664;39.686;2022-08-19T12:21:33;101689.53;;;31.11;24.90
63343;BME280;49465;57.664;39.686;2022-08-19T12:24:09;101684.13;;;31.18;24.24
63343;BME280;49465;57.664;39.686;2022-08-19T12:26:52;101677.72;;;31.26;24.66
63343;BME280;49465;57.664;39.686;2022-08-19T12:29:28;101679.16;;;31.28;24.63
63343;BME280;49465;57.664;39.686;2022-08-19T12:32:03;101681.28;;;31.33;24.52
63343;BME280;49465;57.664;39.686;2022-08-19T12:34:39;101681.47;;;31.31;24.79
63343;BME280;49465;57.664;39.686;2022-08-19T12:37:09;101677.25;;;31.16;24.42
63343;BME280;49465;57.664;39.686;2022-08-19T12:39:40;101672.53;;;31.31;23.69
63343;BME280;49465;57.664;39.686;2022-08-19T12:42:11;101660.38;;;31.20;23.95
63343;BME280;49465;57.664;39.686;2022-08-19T12:44:42;101671.91;;;31.29;24.00
63343;BME280;49465;57.664;39.686;2022-08-19T12:47:11;101667.81;;;31.05;24.03
63343;BME280;49465;57.664;39.686;2022-08-19T12:49:38;101674.75;;;31.14;24.26
63343;BME280;49465;57.664;39.686;2022-08-19T12:52:12;101662.25;;;31.20;23.82
63343;BME280;49465;57.664;39.686;2022-08-19T12:54:42;101663.81;;;30.94;24.05
63343;BME280;49465;57.664;39.686;2022-08-19T12:57:12;101648.91;;;31.11;24.45
63343;BME280;49465;57.664;39.686;2022-08-19T12:59:42;101652.63;;;31.10;24.66
63343;BME280;49465;57.664;39.686;2022-08-19T13:02:15;101655.16;;;31.19;24.26
63343;BME280;49465;57.664;39.686;2022-08-19T13:04:44;101657.84;;;31.12;24.79
63343;BME280;49465;57.664;39.686;2022-08-19T13:07:11;101656.22;;;31.24;24.88
63343;BME280;49465;57.664;39.686;2022-08-19T13:09:37;101653.28;;;31.12;24.65
63343;BME280;49465;57.664;39.686;2022-08-19T13:12:08;101645.00;;;31.34;24.61
63343;BME280;49465;57.664;39.686;2022-08-19T13:14:39;101650.03;;;31.37;24.44
63343;BME280;49465;57.664;39.686;2022-08-19T13:17:06;101641.66;;;31.32;23.86
63343;BME280;49465;57.664;39.686;2022-08-19T13:19:37;101639.25;;;31.50;24.73
63343;BME280;49465;57.664;39.686;2022-08-19T13:22:11;101640.94;;;31.58;24.06
63343;BME280;49465;57.664;39.686;2022-08-19T13:24:43;101650.13;;;31.64;24.27
63343;BME280;49465;57.664;39.686;2022-08-19T13:27:23;101653.66;;;31.58;24.20
63343;BME280;49465;57.664;39.686;2022-08-19T13:29:50;101649.22;;;31.43;24.58
63343;BME280;49465;57.664;39.686;2022-08-19T13:32:39;101648.09;;;31.18;24.32
63343;BME280;49465;57.664;39.686;2022-08-19T13:35:23;101651.03;;;31.23;24.60
63343;BME280;49465;57.664;39.686;2022-08-19T13:38:00;101640.44;;;31.34;24.61
63343;BME280;49465;57.664;39.686;2022-08-19T13:40:36;101637.56;;;31.43;25.30
63343;BME280;49465;57.664;39.686;2022-08-19T13:43:04;101633.41;;;31.53;25.04
63343;BME280;49465;57.664;39.686;2022-08-19T13:45:35;101637.81;;;31.55;24.45
63343;BME280;49465;57.664;39.686;2022-08-19T13:48:15;101637.31;;;31.31;24.20